Etusivu
METAR-TAF:

METAR-TAF

Lentoasemat :

Pantelleria, Italia

Leveyspiiri: 36-49N, Pituuspiiri: 011-58E, korkeus merenpinnasta: 191 m

Tämänhetkinen sää

Tämä raportti tehtiin 39 minuuttia sitten, kello 09.50 UTC
Tuuli 25 kn idästä puuskistuen 38 kn:hen
Lämpötila 19°C
Kosteus 73%
Ilmanpaine 1008 hPa
Näkyvyys 10 km tai enemmän
Hajanaisia pilviä 2000 ft:n korkeudessa

METAR: LICG 280950Z 10025G38KT 9999 SCT020 19/14 Q1008

Aika: 11:29 (10:29 UTC)

Sääennuste

Tämä raportti tehtiin 2 tuntia ja 29 minuuttia sitten, kello 08.00 UTC
Ennuste voimassa 28. päivästä klo 09 UTC - 28. päivään klo 18 UTC
Tuuli 22 kn kaakosta puuskistuen 34 kn:hen
Näkyvyys 10 km tai enemmän
Hajanaisia pilviä 3000 ft:n korkeudessa
Ajoittain
28. päivästä klo 09 UTC - 28. päivään klo 12 UTC
vesikuuroja
Tulossa
28. päivästä klo 11 UTC - 28. päivään klo 13 UTC
Tuuli 16 kn etelästä

TAF: LICG 280800Z 2809/2818 13022G34KT 9999 SCT030 TEMPO 2809/2812 SHRA BECMG 2811/2813 19016KT

Säähavainnot ja -ennusteet yli 4000 lentoasemalta (METAR- ja TAF-raportit).

Käytössä olevat sääasemat on merkitty karttaan keltaisilla ja punaisilla pisteillä.

Aseta hiiri pisteen päälle nähdäksesi sääaseman nimen.

Klikkaa sitten nähdäksesi säähavainnot ja -ennusteet.

Kartan vaihtaminen: klikkaa mustalla rastilla varustettuja vihreitä pisteitä, niin voit zoomata sisään; viivalla varustettua vihreää pistettä, niin voit zoomata ulos tai vihreitä nuolia, niin pääset viereisille kartoille.


METAR-TAF: